sensor_id;sensor_type;location;lat;lon;timestamp;noise_LAeq;noise_LA_min;noise_LA_max;noise_LA01;noise_LA95
74470;Laerm;62918;55.706;37.816;2022-11-20T00:00:07;57.43;50.44;64.64;;
74470;Laerm;62918;55.706;37.816;2022-11-20T00:00:38;69.04;52.79;81.52;;
74470;Laerm;62918;55.706;37.816;2022-11-20T00:01:17;53.41;47.43;64.37;;
74470;Laerm;62918;55.706;37.816;2022-11-20T00:01:48;53.06;47.59;57.45;;
74470;Laerm;62918;55.706;37.816;2022-11-20T00:02:18;52.54;47.93;57.07;;
74470;Laerm;62918;55.706;37.816;2022-11-20T00:02:49;51.20;47.20;55.31;;
74470;Laerm;62918;55.706;37.816;2022-11-20T00:03:19;54.54;49.58;61.75;;
74470;Laerm;62918;55.706;37.816;2022-11-20T00:03:52;52.56;48.44;56.06;;
74470;Laerm;62918;55.706;37.816;2022-11-20T00:04:23;56.73;48.75;72.36;;
74470;Laerm;62918;55.706;37.816;2022-11-20T00:04:53;63.78;48.04;74.81;;
74470;Laerm;62918;55.706;37.816;2022-11-20T00:05:24;54.44;47.93;63.66;;
74470;Laerm;62918;55.706;37.816;2022-11-20T00:05:59;53.85;46.72;62.49;;
74470;Laerm;62918;55.706;37.816;2022-11-20T00:06:30;53.29;49.56;58.17;;
74470;Laerm;62918;55.706;37.816;2022-11-20T00:07:01;54.37;47.85;60.40;;
74470;Laerm;62918;55.706;37.816;2022-11-20T00:07:31;51.81;47.85;56.16;;
74470;Laerm;62918;55.706;37.816;2022-11-20T00:08:02;70.88;51.03;81.87;;
74470;Laerm;62918;55.706;37.816;2022-11-20T00:08:33;61.11;47.74;71.79;;
74470;Laerm;62918;55.706;37.816;2022-11-20T00:09:03;51.79;47.83;57.58;;
74470;Laerm;62918;55.706;37.816;2022-11-20T00:09:35;66.24;49.85;76.25;;
74470;Laerm;62918;55.706;37.816;2022-11-20T00:10:06;58.77;47.39;69.54;;
74470;Laerm;62918;55.706;37.816;2022-11-20T00:10:38;53.09;46.68;66.52;;
74470;Laerm;62918;55.706;37.816;2022-11-20T00:11:13;69.18;49.99;80.07;;
74470;Laerm;62918;55.706;37.816;2022-11-20T00:11:44;56.79;49.08;64.73;;
74470;Laerm;62918;55.706;37.816;2022-11-20T00:12:14;58.25;47.90;69.76;;
74470;Laerm;62918;55.706;37.816;2022-11-20T00:12:46;68.71;51.27;80.29;;
74470;Laerm;62918;55.706;37.816;2022-11-20T00:13:16;58.18;50.69;66.64;;
74470;Laerm;62918;55.706;37.816;2022-11-20T00:13:49;63.01;53.52;70.81;;
74470;Laerm;62918;55.706;37.816;2022-11-20T00:14:20;58.26;48.96;66.18;;
74470;Laerm;62918;55.706;37.816;2022-11-20T00:14:50;53.12;48.43;58.06;;
74470;Laerm;62918;55.706;37.816;2022-11-20T00:15:21;55.09;49.61;67.70;;
74470;Laerm;62918;55.706;37.816;2022-11-20T00:15:57;52.33;48.28;56.61;;
74470;Laerm;62918;55.706;37.816;2022-11-20T00:16:31;54.60;49.12;59.28;;
74470;Laerm;62918;55.706;37.816;2022-11-20T00:17:01;57.64;48.66;66.06;;
74470;Laerm;62918;55.706;37.816;2022-11-20T00:17:32;55.14;48.12;62.85;;
74470;Laerm;62918;55.706;37.816;2022-11-20T00:18:02;53.33;46.44;59.62;;
74470;Laerm;62918;55.706;37.816;2022-11-20T00:18:34;52.59;49.03;56.54;;
74470;Laerm;62918;55.706;37.816;2022-11-20T00:19:04;53.40;47.60;59.92;;
74470;Laerm;62918;55.706;37.816;2022-11-20T00:19:35;49.86;46.69;55.10;;
74470;Laerm;62918;55.706;37.816;2022-11-20T00:20:06;50.12;46.64;56.02;;
74470;Laerm;62918;55.706;37.816;2022-11-20T00:20:36;51.36;47.32;57.04;;
74470;Laerm;62918;55.706;37.816;2022-11-20T00:21:11;51.68;46.61;62.37;;
74470;Laerm;62918;55.706;37.816;2022-11-20T00:21:42;50.95;46.15;60.83;;
74470;Laerm;62918;55.706;37.816;2022-11-20T00:22:12;51.81;45.67;59.66;;
74470;Laerm;62918;55.706;37.816;2022-11-20T00:22:44;50.72;46.84;56.25;;
74470;Laerm;62918;55.706;37.816;2022-11-20T00:23:14;54.13;48.36;61.32;;
74470;Laerm;62918;55.706;37.816;2022-11-20T00:23:45;50.96;47.37;55.21;;
74470;Laerm;62918;55.706;37.816;2022-11-20T00:24:16;52.19;48.23;62.30;;
74470;Laerm;62918;55.706;37.816;2022-11-20T00:24:46;51.62;46.77;63.01;;
74470;Laerm;62918;55.706;37.816;2022-11-20T00:25:17;49.98;46.99;52.78;;
74470;Laerm;62918;55.706;37.816;2022-11-20T00:25:47;51.35;46.61;56.87;;
74470;Laerm;62918;55.706;37.816;2022-11-20T00:26:19;49.42;45.52;53.84;;
74470;Laerm;62918;55.706;37.816;2022-11-20T00:26:50;50.40;46.93;56.56;;
74470;Laerm;62918;55.706;37.816;2022-11-20T00:27:21;53.96;49.29;61.21;;
74470;Laerm;62918;55.706;37.816;2022-11-20T00:27:51;53.19;47.73;59.18;;
74470;Laerm;62918;55.706;37.816;2022-11-20T00:28:22;51.44;46.75;57.62;;
74470;Laerm;62918;55.706;37.816;2022-11-20T00:28:57;50.55;46.08;60.67;;
74470;Laerm;62918;55.706;37.816;2022-11-20T00:29:28;68.11;49.27;78.58;;
74470;Laerm;62918;55.706;37.816;2022-11-20T00:29:59;66.64;48.95;80.42;;
74470;Laerm;62918;55.706;37.816;2022-11-20T00:30:29;54.59;47.66;64.84;;
74470;Laerm;62918;55.706;37.816;2022-11-20T00:31:05;56.15;50.39;67.25;;
74470;Laerm;62918;55.706;37.816;2022-11-20T00:31:36;60.94;50.59;73.56;;
74470;Laerm;62918;55.706;37.816;2022-11-20T00:32:07;68.42;51.18;79.89;;
74470;Laerm;62918;55.706;37.816;2022-11-20T00:32:37;52.92;47.16;63.46;;
74470;Laerm;62918;55.706;37.816;2022-11-20T00:33:08;55.58;48.09;64.55;;
74470;Laerm;62918;55.706;37.816;2022-11-20T00:33:39;49.15;46.41;52.33;;
74470;Laerm;62918;55.706;37.816;2022-11-20T00:34:09;53.55;46.42;61.81;;
74470;Laerm;62918;55.706;37.816;2022-11-20T00:34:40;63.27;54.39;72.42;;
74470;Laerm;62918;55.706;37.816;2022-11-20T00:35:11;59.78;49.71;69.92;;
74470;Laerm;62918;55.706;37.816;2022-11-20T00:35:41;53.94;47.86;63.89;;
74470;Laerm;62918;55.706;37.816;2022-11-20T00:36:17;50.64;46.25;59.73;;
74470;Laerm;62918;55.706;37.816;2022-11-20T00:36:48;50.50;45.16;60.25;;
74470;Laerm;62918;55.706;37.816;2022-11-20T00:37:18;50.12;47.10;53.91;;
74470;Laerm;62918;55.706;37.816;2022-11-20T00:37:49;50.60;46.69;57.75;;
74470;Laerm;62918;55.706;37.816;2022-11-20T00:38:20;50.18;46.34;53.57;;
74470;Laerm;62918;55.706;37.816;2022-11-20T00:38:54;50.86;47.55;57.33;;
74470;Laerm;62918;55.706;37.816;2022-11-20T00:39:25;50.72;46.79;58.14;;
74470;Laerm;62918;55.706;37.816;2022-11-20T00:39:56;53.20;47.96;58.55;;
74470;Laerm;62918;55.706;37.816;2022-11-20T00:40:26;55.93;48.56;60.93;;
74470;Laerm;62918;55.706;37.816;2022-11-20T00:40:58;64.60;53.01;70.18;;
74470;Laerm;62918;55.706;37.816;2022-11-20T00:41:29;65.95;60.52;74.93;;
74470;Laerm;62918;55.706;37.816;2022-11-20T00:42:00;58.06;51.20;64.90;;
74470;Laerm;62918;55.706;37.816;2022-11-20T00:42:30;51.94;48.07;58.17;;
74470;Laerm;62918;55.706;37.816;2022-11-20T00:43:02;51.81;47.58;55.89;;
74470;Laerm;62918;55.706;37.816;2022-11-20T00:43:34;53.92;47.47;59.93;;
74470;Laerm;62918;55.706;37.816;2022-11-20T00:44:04;54.79;49.32;61.90;;
74470;Laerm;62918;55.706;37.816;2022-11-20T00:44:35;55.94;48.81;72.08;;
74470;Laerm;62918;55.706;37.816;2022-11-20T00:45:06;65.82;50.17;76.11;;
74470;Laerm;62918;55.706;37.816;2022-11-20T00:45:37;68.56;50.38;79.48;;
74470;Laerm;62918;55.706;37.816;2022-11-20T00:46:15;52.07;46.61;57.57;;
74470;Laerm;62918;55.706;37.816;2022-11-20T00:46:46;60.00;48.68;75.24;;
74470;Laerm;62918;55.706;37.816;2022-11-20T00:47:16;65.93;51.94;78.48;;
74470;Laerm;62918;55.706;37.816;2022-11-20T00:47:47;52.97;47.78;60.36;;
74470;Laerm;62918;55.706;37.816;2022-11-20T00:48:18;60.90;49.78;70.15;;
74470;Laerm;62918;55.706;37.816;2022-11-20T00:48:48;54.16;48.44;63.79;;
74470;Laerm;62918;55.706;37.816;2022-11-20T00:49:19;56.40;47.38;65.43;;
74470;Laerm;62918;55.706;37.816;2022-11-20T00:49:50;51.60;47.05;75.00;;
74470;Laerm;62918;55.706;37.816;2022-11-20T00:50:20;57.43;49.89;66.61;;
74470;Laerm;62918;55.706;37.816;2022-11-20T00:50:51;67.09;53.94;78.94;;
74470;Laerm;62918;55.706;37.816;2022-11-20T00:51:24;51.80;47.51;60.14;;
74470;Laerm;62918;55.706;37.816;2022-11-20T00:51:55;50.20;46.84;53.91;;
74470;Laerm;62918;55.706;37.816;2022-11-20T00:52:25;51.74;47.72;68.00;;
74470;Laerm;62918;55.706;37.816;2022-11-20T00:52:56;49.80;46.99;54.79;;
74470;Laerm;62918;55.706;37.816;2022-11-20T00:53:27;51.63;47.38;56.23;;
74470;Laerm;62918;55.706;37.816;2022-11-20T00:53:58;51.35;47.27;57.15;;
74470;Laerm;62918;55.706;37.816;2022-11-20T00:54:30;53.84;49.51;59.99;;
74470;Laerm;62918;55.706;37.816;2022-11-20T00:55:00;57.48;48.67;68.92;;
74470;Laerm;62918;55.706;37.816;2022-11-20T00:55:30;63.22;47.14;76.20;;
74470;Laerm;62918;55.706;37.816;2022-11-20T00:56:04;50.26;46.38;58.08;;
74470;Laerm;62918;55.706;37.816;2022-11-20T00:56:35;52.64;47.66;58.44;;
74470;Laerm;62918;55.706;37.816;2022-11-20T00:57:05;55.06;47.36;63.20;;
74470;Laerm;62918;55.706;37.816;2022-11-20T00:57:36;51.52;47.07;60.88;;
74470;Laerm;62918;55.706;37.816;2022-11-20T00:58:07;50.68;44.59;55.95;;
74470;Laerm;62918;55.706;37.816;2022-11-20T00:58:38;49.99;45.90;54.85;;
74470;Laerm;62918;55.706;37.816;2022-11-20T00:59:09;54.97;47.87;62.27;;
74470;Laerm;62918;55.706;37.816;2022-11-20T00:59:41;62.13;48.60;73.22;;
74470;Laerm;62918;55.706;37.816;2022-11-20T01:00:11;53.99;49.62;58.53;;
74470;Laerm;62918;55.706;37.816;2022-11-20T01:00:42;70.28;50.04;82.72;;
74470;Laerm;62918;55.706;37.816;2022-11-20T01:01:15;60.27;48.06;70.55;;
74470;Laerm;62918;55.706;37.816;2022-11-20T01:01:46;50.07;47.02;53.28;;
74470;Laerm;62918;55.706;37.816;2022-11-20T01:02:16;51.08;46.81;57.27;;
74470;Laerm;62918;55.706;37.816;2022-11-20T01:02:47;51.64;47.45;60.37;;
74470;Laerm;62918;55.706;37.816;2022-11-20T01:03:18;51.55;45.80;60.68;;
74470;Laerm;62918;55.706;37.816;2022-11-20T01:03:50;51.76;47.22;56.34;;
74470;Laerm;62918;55.706;37.816;2022-11-20T01:04:21;50.07;46.10;59.66;;
74470;Laerm;62918;55.706;37.816;2022-11-20T01:04:52;49.82;45.66;60.68;;
74470;Laerm;62918;55.706;37.816;2022-11-20T01:05:22;52.23;46.33;57.67;;
74470;Laerm;62918;55.706;37.816;2022-11-20T01:05:53;50.62;46.59;56.23;;
74470;Laerm;62918;55.706;37.816;2022-11-20T01:06:26;49.77;46.54;54.27;;
74470;Laerm;62918;55.706;37.816;2022-11-20T01:06:57;49.36;45.78;58.71;;
74470;Laerm;62918;55.706;37.816;2022-11-20T01:07:27;49.19;45.47;61.95;;
74470;Laerm;62918;55.706;37.816;2022-11-20T01:07:58;48.47;45.67;51.49;;
74470;Laerm;62918;55.706;37.816;2022-11-20T01:08:32;49.33;46.08;53.69;;
74470;Laerm;62918;55.706;37.816;2022-11-20T01:09:12;49.37;46.16;52.80;;
74470;Laerm;62918;55.706;37.816;2022-11-20T01:09:43;49.81;46.57;54.68;;
74470;Laerm;62918;55.706;37.816;2022-11-20T01:10:14;52.39;46.61;56.57;;
74470;Laerm;62918;55.706;37.816;2022-11-20T01:10:44;49.31;45.46;54.26;;
74470;Laerm;62918;55.706;37.816;2022-11-20T01:11:20;53.43;47.55;59.07;;
74470;Laerm;62918;55.706;37.816;2022-11-20T01:11:51;53.61;47.99;66.95;;
74470;Laerm;62918;55.706;37.816;2022-11-20T01:12:21;49.21;46.01;55.69;;
74470;Laerm;62918;55.706;37.816;2022-11-20T01:12:52;53.69;46.83;60.99;;
74470;Laerm;62918;55.706;37.816;2022-11-20T01:13:43;51.83;47.99;57.02;;
74470;Laerm;62918;55.706;37.816;2022-11-20T01:14:16;55.37;50.38;61.62;;
74470;Laerm;62918;55.706;37.816;2022-11-20T01:14:47;59.42;54.66;66.23;;
74470;Laerm;62918;55.706;37.816;2022-11-20T01:15:17;58.80;54.26;63.86;;
74470;Laerm;62918;55.706;37.816;2022-11-20T01:15:48;62.66;54.44;67.08;;
74470;Laerm;62918;55.706;37.816;2022-11-20T01:16:33;59.70;55.03;63.88;;
74470;Laerm;62918;55.706;37.816;2022-11-20T01:17:04;60.51;56.23;65.82;;
74470;Laerm;62918;55.706;37.816;2022-11-20T01:17:35;59.67;52.76;67.54;;
74470;Laerm;62918;55.706;37.816;2022-11-20T01:18:06;55.59;49.94;59.90;;
74470;Laerm;62918;55.706;37.816;2022-11-20T01:18:38;50.88;45.51;57.60;;
74470;Laerm;62918;55.706;37.816;2022-11-20T01:19:12;50.75;46.35;58.13;;
74470;Laerm;62918;55.706;37.816;2022-11-20T01:19:43;50.83;46.06;57.59;;
74470;Laerm;62918;55.706;37.816;2022-11-20T01:20:14;52.99;48.39;57.42;;
74470;Laerm;62918;55.706;37.816;2022-11-20T01:20:44;51.44;46.21;60.42;;
74470;Laerm;62918;55.706;37.816;2022-11-20T01:21:18;48.99;45.21;53.20;;
74470;Laerm;62918;55.706;37.816;2022-11-20T01:21:50;49.73;44.77;53.66;;
74470;Laerm;62918;55.706;37.816;2022-11-20T01:22:22;47.78;43.82;52.21;;
74470;Laerm;62918;55.706;37.816;2022-11-20T01:22:52;47.87;44.27;51.71;;
74470;Laerm;62918;55.706;37.816;2022-11-20T01:23:23;47.77;44.07;53.21;;
74470;Laerm;62918;55.706;37.816;2022-11-20T01:23:54;48.58;45.02;53.18;;
74470;Laerm;62918;55.706;37.816;2022-11-20T01:24:25;48.28;44.06;68.44;;
74470;Laerm;62918;55.706;37.816;2022-11-20T01:24:55;50.90;45.83;65.61;;
74470;Laerm;62918;55.706;37.816;2022-11-20T01:25:26;48.09;44.49;51.78;;
74470;Laerm;62918;55.706;37.816;2022-11-20T01:25:56;49.61;44.94;55.14;;
74470;Laerm;62918;55.706;37.816;2022-11-20T01:26:30;51.67;45.35;56.89;;
74470;Laerm;62918;55.706;37.816;2022-11-20T01:27:00;48.88;45.45;53.16;;
74470;Laerm;62918;55.706;37.816;2022-11-20T01:27:31;48.47;45.40;55.56;;
74470;Laerm;62918;55.706;37.816;2022-11-20T01:28:01;51.15;44.33;56.71;;
74470;Laerm;62918;55.706;37.816;2022-11-20T01:28:33;48.31;44.54;51.88;;
74470;Laerm;62918;55.706;37.816;2022-11-20T01:29:04;48.14;44.66;62.04;;
74470;Laerm;62918;55.706;37.816;2022-11-20T01:29:35;51.24;44.50;57.04;;
74470;Laerm;62918;55.706;37.816;2022-11-20T01:30:06;49.26;45.31;54.19;;
74470;Laerm;62918;55.706;37.816;2022-11-20T01:30:36;52.05;46.48;58.75;;
74470;Laerm;62918;55.706;37.816;2022-11-20T01:32:04;50.73;45.83;64.75;;
74470;Laerm;62918;55.706;37.816;2022-11-20T01:32:35;49.99;46.05;56.21;;
74470;Laerm;62918;55.706;37.816;2022-11-20T01:33:05;50.93;46.55;55.35;;
74470;Laerm;62918;55.706;37.816;2022-11-20T01:33:36;48.88;46.07;53.11;;
74470;Laerm;62918;55.706;37.816;2022-11-20T01:34:10;51.50;46.47;55.96;;
74470;Laerm;62918;55.706;37.816;2022-11-20T01:34:41;50.60;47.73;54.03;;
74470;Laerm;62918;55.706;37.816;2022-11-20T01:35:12;54.97;48.14;64.46;;
74470;Laerm;62918;55.706;37.816;2022-11-20T01:35:43;55.06;51.79;58.02;;
74470;Laerm;62918;55.706;37.816;2022-11-20T01:36:14;54.64;50.65;59.37;;
74470;Laerm;62918;55.706;37.816;2022-11-20T01:36:45;54.64;50.62;59.93;;
74470;Laerm;62918;55.706;37.816;2022-11-20T01:37:16;53.95;50.35;60.64;;
74470;Laerm;62918;55.706;37.816;2022-11-20T01:37:46;52.76;50.19;55.20;;
74470;Laerm;62918;55.706;37.816;2022-11-20T01:38:17;56.57;50.30;74.86;;
74470;Laerm;62918;55.706;37.816;2022-11-20T01:38:55;54.71;50.79;59.79;;
74470;Laerm;62918;55.706;37.816;2022-11-20T01:39:26;53.62;49.86;60.11;;
74470;Laerm;62918;55.706;37.816;2022-11-20T01:39:57;52.17;49.18;66.28;;
74470;Laerm;62918;55.706;37.816;2022-11-20T01:40:27;52.32;49.69;55.83;;
74470;Laerm;62918;55.706;37.816;2022-11-20T01:40:58;52.47;49.82;55.22;;
74470;Laerm;62918;55.706;37.816;2022-11-20T01:41:30;53.32;50.09;56.43;;
74470;Laerm;62918;55.706;37.816;2022-11-20T01:42:19;53.79;50.68;65.07;;
74470;Laerm;62918;55.706;37.816;2022-11-20T01:43:17;56.42;52.24;62.94;;
74470;Laerm;62918;55.706;37.816;2022-11-20T01:43:51;53.79;51.34;55.94;;
74470;Laerm;62918;55.706;37.816;2022-11-20T01:44:52;55.84;51.66;61.49;;
74470;Laerm;62918;55.706;37.816;2022-11-20T01:45:48;55.47;49.37;61.29;;
74470;Laerm;62918;55.706;37.816;2022-11-20T01:46:20;52.66;49.24;59.04;;
74470;Laerm;62918;55.706;37.816;2022-11-20T01:47:00;52.03;48.75;58.30;;
74470;Laerm;62918;55.706;37.816;2022-11-20T01:47:40;51.91;49.49;58.61;;
74470;Laerm;62918;55.706;37.816;2022-11-20T01:48:14;53.07;48.97;58.98;;
74470;Laerm;62918;55.706;37.816;2022-11-20T01:48:53;52.85;49.58;56.58;;
74470;Laerm;62918;55.706;37.816;2022-11-20T01:49:38;52.66;49.96;64.09;;
74470;Laerm;62918;55.706;37.816;2022-11-20T01:50:16;56.83;48.41;65.88;;
74470;Laerm;62918;55.706;37.816;2022-11-20T01:50:50;52.42;49.35;56.87;;
74470;Laerm;62918;55.706;37.816;2022-11-20T01:52:20;58.57;46.02;72.23;;
74470;Laerm;62918;55.706;37.816;2022-11-20T01:52:56;48.61;45.33;55.24;;
74470;Laerm;62918;55.706;37.816;2022-11-20T01:53:32;49.17;45.34;53.74;;
74470;Laerm;62918;55.706;37.816;2022-11-20T01:54:07;56.58;47.66;72.63;;
74470;Laerm;62918;55.706;37.816;2022-11-20T01:54:47;67.38;49.45;77.07;;
74470;Laerm;62918;55.706;37.816;2022-11-20T01:55:24;52.25;46.44;60.17;;
74470;Laerm;62918;55.706;37.816;2022-11-20T01:55:58;48.78;45.63;53.83;;
74470;Laerm;62918;55.706;37.816;2022-11-20T01:56:31;50.14;45.55;55.32;;
74470;Laerm;62918;55.706;37.816;2022-11-20T01:57:04;62.91;49.26;69.95;;
74470;Laerm;62918;55.706;37.816;2022-11-20T01:57:37;59.77;47.51;71.52;;
74470;Laerm;62918;55.706;37.816;2022-11-20T01:58:08;64.82;48.36;78.60;;
74470;Laerm;62918;55.706;37.816;2022-11-20T01:58:44;50.10;44.78;62.84;;
74470;Laerm;62918;55.706;37.816;2022-11-20T01:59:18;49.79;45.87;53.68;;
74470;Laerm;62918;55.706;37.816;2022-11-20T02:00:20;50.56;46.23;54.46;;
74470;Laerm;62918;55.706;37.816;2022-11-20T02:00:49;51.25;45.69;57.37;;
74470;Laerm;62918;55.706;37.816;2022-11-20T02:01:20;54.20;47.44;60.53;;
74470;Laerm;62918;55.706;37.816;2022-11-20T02:01:52;55.05;50.46;58.14;;
74470;Laerm;62918;55.706;37.816;2022-11-20T02:02:22;54.66;48.96;61.51;;
74470;Laerm;62918;55.706;37.816;2022-11-20T02:03:17;54.47;49.49;62.49;;
74470;Laerm;62918;55.706;37.816;2022-11-20T02:03:47;68.08;50.44;79.24;;
74470;Laerm;62918;55.706;37.816;2022-11-20T02:04:19;57.17;49.59;65.29;;
74470;Laerm;62918;55.706;37.816;2022-11-20T02:04:51;54.27;51.44;56.82;;
74470;Laerm;62918;55.706;37.816;2022-11-20T02:05:32;65.71;52.73;73.08;;
74470;Laerm;62918;55.706;37.816;2022-11-20T02:06:50;56.08;47.61;61.73;;
74470;Laerm;62918;55.706;37.816;2022-11-20T02:07:23;59.61;50.55;64.97;;
74470;Laerm;62918;55.706;37.816;2022-11-20T02:07:55;52.25;49.16;60.17;;
74470;Laerm;62918;55.706;37.816;2022-11-20T02:08:28;53.30;47.22;60.39;;
74470;Laerm;62918;55.706;37.816;2022-11-20T02:08:58;52.36;48.28;58.60;;
74470;Laerm;62918;55.706;37.816;2022-11-20T02:09:29;53.42;49.26;59.29;;
74470;Laerm;62918;55.706;37.816;2022-11-20T02:09:59;61.10;52.06;70.95;;
74470;Laerm;62918;55.706;37.816;2022-11-20T02:10:30;66.68;57.92;72.59;;
74470;Laerm;62918;55.706;37.816;2022-11-20T02:11:01;59.95;52.72;67.98;;
74470;Laerm;62918;55.706;37.816;2022-11-20T02:11:32;65.25;49.62;78.76;;
74470;Laerm;62918;55.706;37.816;2022-11-20T02:12:03;59.01;49.25;70.39;;
74470;Laerm;62918;55.706;37.816;2022-11-20T02:12:34;50.62;46.62;55.58;;
74470;Laerm;62918;55.706;37.816;2022-11-20T02:13:23;68.12;47.64;81.09;;
74470;Laerm;62918;55.706;37.816;2022-11-20T02:14:14;62.97;47.01;79.00;;
74470;Laerm;62918;55.706;37.816;2022-11-20T02:14:45;54.77;50.04;58.83;;
74470;Laerm;62918;55.706;37.816;2022-11-20T02:15:15;53.13;51.18;56.64;;
74470;Laerm;62918;55.706;37.816;2022-11-20T02:15:46;59.88;51.38;68.75;;
74470;Laerm;62918;55.706;37.816;2022-11-20T02:16:51;52.33;47.38;56.46;;
74470;Laerm;62918;55.706;37.816;2022-11-20T02:17:23;54.86;50.62;60.97;;
74470;Laerm;62918;55.706;37.816;2022-11-20T02:17:53;56.58;50.36;65.89;;
74470;Laerm;62918;55.706;37.816;2022-11-20T02:18:24;56.16;51.88;60.79;;
74470;Laerm;62918;55.706;37.816;2022-11-20T02:18:56;54.37;49.69;59.67;;
74470;Laerm;62918;55.706;37.816;2022-11-20T02:19:31;57.54;51.61;62.70;;
74470;Laerm;62918;55.706;37.816;2022-11-20T02:20:02;54.22;49.73;59.23;;
74470;Laerm;62918;55.706;37.816;2022-11-20T02:20:33;52.67;47.85;57.85;;
74470;Laerm;62918;55.706;37.816;2022-11-20T02:22:31;53.50;48.83;58.06;;
74470;Laerm;62918;55.706;37.816;2022-11-20T02:23:12;53.00;47.40;58.20;;
74470;Laerm;62918;55.706;37.816;2022-11-20T02:24:03;53.17;47.46;63.59;;
74470;Laerm;62918;55.706;37.816;2022-11-20T02:24:34;53.15;47.30;58.09;;
74470;Laerm;62918;55.706;37.816;2022-11-20T02:25:05;54.76;49.05;60.50;;
74470;Laerm;62918;55.706;37.816;2022-11-20T02:25:37;55.70;50.79;65.39;;
74470;Laerm;62918;55.706;37.816;2022-11-20T02:26:12;53.96;49.98;64.70;;
74470;Laerm;62918;55.706;37.816;2022-11-20T02:27:17;55.97;47.26;63.17;;
74470;Laerm;62918;55.706;37.816;2022-11-20T02:27:48;54.36;46.94;61.55;;
74470;Laerm;62918;55.706;37.816;2022-11-20T02:28:19;56.83;50.35;62.16;;
74470;Laerm;62918;55.706;37.816;2022-11-20T02:28:50;58.10;52.16;64.40;;
74470;Laerm;62918;55.706;37.816;2022-11-20T02:29:38;57.03;49.63;64.10;;
74470;Laerm;62918;55.706;37.816;2022-11-20T02:30:10;56.97;49.38;62.82;;
74470;Laerm;62918;55.706;37.816;2022-11-20T02:30:41;56.37;49.82;64.24;;
74470;Laerm;62918;55.706;37.816;2022-11-20T02:31:11;61.79;53.39;67.57;;
74470;Laerm;62918;55.706;37.816;2022-11-20T02:31:43;57.90;52.80;63.21;;
74470;Laerm;62918;55.706;37.816;2022-11-20T02:32:22;55.81;50.97;61.54;;
74470;Laerm;62918;55.706;37.816;2022-11-20T02:32:52;56.10;49.30;60.80;;
74470;Laerm;62918;55.706;37.816;2022-11-20T02:33:23;57.25;50.67;62.65;;
74470;Laerm;62918;55.706;37.816;2022-11-20T02:33:55;53.91;50.82;56.98;;
74470;Laerm;62918;55.706;37.816;2022-11-20T02:34:26;57.84;53.40;64.50;;
74470;Laerm;62918;55.706;37.816;2022-11-20T02:34:57;63.70;56.50;69.68;;
74470;Laerm;62918;55.706;37.816;2022-11-20T02:35:58;57.06;51.94;62.74;;
74470;Laerm;62918;55.706;37.816;2022-11-20T02:36:30;55.78;51.47;62.88;;
74470;Laerm;62918;55.706;37.816;2022-11-20T02:37:02;55.40;49.04;63.03;;
74470;Laerm;62918;55.706;37.816;2022-11-20T02:37:37;54.85;50.64;59.92;;
74470;Laerm;62918;55.706;37.816;2022-11-20T02:38:09;54.95;46.34;62.51;;
74470;Laerm;62918;55.706;37.816;2022-11-20T02:38:40;59.23;49.81;69.06;;
74470;Laerm;62918;55.706;37.816;2022-11-20T02:39:12;53.67;48.77;63.26;;
74470;Laerm;62918;55.706;37.816;2022-11-20T02:39:44;51.40;47.82;55.79;;
74470;Laerm;62918;55.706;37.816;2022-11-20T02:40:16;52.32;47.67;57.61;;
74470;Laerm;62918;55.706;37.816;2022-11-20T02:40:47;52.14;46.24;59.69;;
74470;Laerm;62918;55.706;37.816;2022-11-20T02:41:17;56.57;49.37;62.70;;
74470;Laerm;62918;55.706;37.816;2022-11-20T02:41:48;55.40;49.31;61.67;;
74470;Laerm;62918;55.706;37.816;2022-11-20T02:42:18;57.16;51.57;62.76;;
74470;Laerm;62918;55.706;37.816;2022-11-20T02:42:53;66.18;54.36;74.73;;
74470;Laerm;62918;55.706;37.816;2022-11-20T02:43:23;57.99;52.60;63.23;;
74470;Laerm;62918;55.706;37.816;2022-11-20T02:43:54;59.68;51.08;70.05;;
74470;Laerm;62918;55.706;37.816;2022-11-20T02:44:24;67.57;62.22;70.51;;
74470;Laerm;62918;55.706;37.816;2022-11-20T02:44:55;60.47;51.13;70.75;;
74470;Laerm;62918;55.706;37.816;2022-11-20T02:45:26;51.38;47.68;58.12;;
74470;Laerm;62918;55.706;37.816;2022-11-20T02:45:56;52.19;47.05;67.07;;
74470;Laerm;62918;55.706;37.816;2022-11-20T02:46:27;55.13;48.80;70.23;;
74470;Laerm;62918;55.706;37.816;2022-11-20T02:46:58;52.02;47.58;63.57;;
74470;Laerm;62918;55.706;37.816;2022-11-20T02:47:29;54.44;49.77;58.79;;
74470;Laerm;62918;55.706;37.816;2022-11-20T02:47:59;56.39;48.81;72.55;;
74470;Laerm;62918;55.706;37.816;2022-11-20T02:48:30;62.84;55.22;72.28;;
74470;Laerm;62918;55.706;37.816;2022-11-20T02:49:04;55.20;50.31;68.87;;
74470;Laerm;62918;55.706;37.816;2022-11-20T02:49:35;63.51;52.67;70.90;;
74470;Laerm;62918;55.706;37.816;2022-11-20T02:50:05;57.23;50.49;67.58;;
74470;Laerm;62918;55.706;37.816;2022-11-20T02:50:37;55.44;51.59;61.65;;
74470;Laerm;62918;55.706;37.816;2022-11-20T02:51:09;58.88;54.37;62.67;;
74470;Laerm;62918;55.706;37.816;2022-11-20T02:51:39;65.89;56.25;70.52;;
74470;Laerm;62918;55.706;37.816;2022-11-20T02:52:10;64.85;53.90;72.01;;
74470;Laerm;62918;55.706;37.816;2022-11-20T02:52:40;54.84;50.87;65.40;;
74470;Laerm;62918;55.706;37.816;2022-11-20T02:53:11;56.73;52.00;65.63;;
74470;Laerm;62918;55.706;37.816;2022-11-20T02:53:42;56.92;48.03;62.22;;
74470;Laerm;62918;55.706;37.816;2022-11-20T02:54:12;57.66;52.53;64.27;;
74470;Laerm;62918;55.706;37.816;2022-11-20T02:54:43;57.34;49.28;64.29;;
74470;Laerm;62918;55.706;37.816;2022-11-20T02:55:13;56.74;52.63;63.12;;
74470;Laerm;62918;55.706;37.816;2022-11-20T02:55:44;55.60;51.55;58.74;;
74470;Laerm;62918;55.706;37.816;2022-11-20T02:56:15;52.12;48.64;57.43;;
74470;Laerm;62918;55.706;37.816;2022-11-20T02:56:45;56.07;49.19;69.43;;
74470;Laerm;62918;55.706;37.816;2022-11-20T02:57:16;59.24;50.32;71.23;;
74470;Laerm;62918;55.706;37.816;2022-11-20T02:57:47;54.96;47.34;68.99;;
74470;Laerm;62918;55.706;37.816;2022-11-20T02:58:17;51.73;47.74;63.63;;
74470;Laerm;62918;55.706;37.816;2022-11-20T02:58:48;52.61;48.59;58.73;;
74470;Laerm;62918;55.706;37.816;2022-11-20T02:59:18;54.30;50.54;61.17;;
74470;Laerm;62918;55.706;37.816;2022-11-20T02:59:49;56.35;49.82;70.45;;
74470;Laerm;62918;55.706;37.816;2022-11-20T03:00:19;55.95;49.28;63.47;;
74470;Laerm;62918;55.706;37.816;2022-11-20T03:00:50;52.44;48.89;56.63;;
74470;Laerm;62918;55.706;37.816;2022-11-20T03:01:20;53.43;47.59;62.46;;
74470;Laerm;62918;55.706;37.816;2022-11-20T03:01:51;55.82;49.01;63.65;;
74470;Laerm;62918;55.706;37.816;2022-11-20T03:02:22;56.43;50.25;63.83;;
74470;Laerm;62918;55.706;37.816;2022-11-20T03:02:52;53.78;49.51;62.01;;
74470;Laerm;62918;55.706;37.816;2022-11-20T03:03:23;54.39;49.98;59.81;;
74470;Laerm;62918;55.706;37.816;2022-11-20T03:03:53;54.51;48.60;60.95;;
74470;Laerm;62918;55.706;37.816;2022-11-20T03:04:25;56.08;48.68;64.36;;